createdAt,value
2019-04-25T00:01:38.743Z,61.80
2019-04-25T00:04:12.234Z,59.25
2019-04-25T00:06:44.966Z,62.60
2019-04-25T00:09:21.903Z,54.65
2019-04-25T00:11:54.088Z,61.90
2019-04-25T00:14:25.940Z,56.40
2019-04-25T00:16:57.698Z,54.15
2019-04-25T00:19:29.866Z,54.10
2019-04-25T00:22:09.312Z,54.05
2019-04-25T00:24:54.592Z,49.33
2019-04-25T00:27:27.441Z,49.83
2019-04-25T00:30:01.689Z,51.77
2019-04-25T00:32:34.268Z,47.73
2019-04-25T00:35:06.700Z,47.20
2019-04-25T00:37:38.808Z,45.33
2019-04-25T00:40:11.858Z,47.93
2019-04-25T00:42:44.904Z,49.03
2019-04-25T00:45:16.519Z,45.30
2019-04-25T00:47:48.293Z,55.43
2019-04-25T00:50:19.854Z,50.70
2019-04-25T00:52:53.329Z,52.15
2019-04-25T00:55:28.587Z,51.40
2019-04-25T00:58:01.351Z,49.45
2019-04-25T01:00:35.699Z,54.13
2019-04-25T01:03:09.109Z,50.05
2019-04-25T01:05:42.492Z,59.27
2019-04-25T01:10:46.424Z,50.08
2019-04-25T01:13:18.592Z,47.90
2019-04-25T01:15:52.888Z,50.63
2019-04-25T01:18:25.291Z,53.68
2019-04-25T01:20:57.319Z,48.10
2019-04-25T01:23:29.708Z,49.53
2019-04-25T01:26:01.486Z,46.45
2019-04-25T01:28:33.583Z,48.58
2019-04-25T01:31:08.307Z,49.33
2019-04-25T01:33:40.351Z,52.45
2019-04-25T01:36:13.957Z,60.80
2019-04-25T01:38:56.573Z,51.80
2019-04-25T01:41:35.273Z,49.53
2019-04-25T01:44:14.474Z,53.40
2019-04-25T01:46:46.492Z,53.65
2019-04-25T01:49:18.568Z,48.40
2019-04-25T01:51:50.409Z,46.65
2019-04-25T01:54:23.797Z,48.70
2019-04-25T01:56:56.223Z,50.92
2019-04-25T01:59:28.051Z,51.85
2019-04-25T02:02:00.164Z,46.28
2019-04-25T02:04:31.994Z,57.55
2019-04-25T02:07:05.668Z,56.08
2019-04-25T02:09:37.326Z,50.70
2019-04-25T02:12:15.534Z,46.95
2019-04-25T02:14:47.510Z,45.50
2019-04-25T02:17:19.975Z,43.50
2019-04-25T02:19:52.177Z,46.05
2019-04-25T02:22:24.416Z,46.18
2019-04-25T02:24:57.112Z,43.60
2019-04-25T02:27:29.540Z,43.45
2019-04-25T02:30:01.493Z,44.13
2019-04-25T02:32:37.172Z,48.70
2019-04-25T02:35:10.040Z,55.38
2019-04-25T02:37:41.849Z,50.87
2019-04-25T02:40:15.756Z,50.73
2019-04-25T02:42:47.412Z,46.65
2019-04-25T02:45:24.547Z,48.25
2019-04-25T02:48:01.520Z,52.20
2019-04-25T02:50:35.372Z,56.48
2019-04-25T02:53:13.990Z,55.60
2019-04-25T02:55:45.468Z,51.45
2019-04-25T02:58:17.117Z,52.90
2019-04-25T03:00:57.392Z,49.75
2019-04-25T03:03:24.457Z,55.80
2019-04-25T03:05:57.357Z,58.63
2019-04-25T03:08:29.162Z,60.08
2019-04-25T03:11:01.601Z,55.00
2019-04-25T03:13:34.317Z,48.63
2019-04-25T03:16:09.133Z,50.10
2019-04-25T03:18:44.501Z,57.48
2019-04-25T03:21:17.879Z,66.02
2019-04-25T03:23:50.354Z,63.53
2019-04-25T03:26:23.404Z,62.75
2019-04-25T03:28:55.003Z,65.85
2019-04-25T03:31:27.433Z,65.20
2019-04-25T03:33:59.185Z,64.25
2019-04-25T03:36:30.995Z,64.77
2019-04-25T03:39:03.972Z,66.50
2019-04-25T03:41:36.630Z,62.90
2019-04-25T03:44:08.533Z,65.05
2019-04-25T03:46:40.408Z,58.23
2019-04-25T03:49:13.902Z,57.90
2019-04-25T03:51:47.046Z,53.80
2019-04-25T03:54:18.734Z,62.62
2019-04-25T03:56:54.390Z,57.98
2019-04-25T03:59:25.505Z,60.60
2019-04-25T04:01:57.318Z,55.03
2019-04-25T04:04:29.964Z,52.80
2019-04-25T04:07:01.446Z,53.50
2019-04-25T04:09:33.819Z,58.75
2019-04-25T04:12:06.372Z,53.33
2019-04-25T04:14:38.568Z,63.08
2019-04-25T04:17:16.026Z,52.50
2019-04-25T04:20:01.298Z,51.88
2019-04-25T04:22:53.381Z,63.42
2019-04-25T04:25:25.325Z,64.53
2019-04-25T04:27:57.578Z,61.53
2019-04-25T04:30:29.460Z,58.15
2019-04-25T04:33:01.095Z,57.78
2019-04-25T04:35:33.626Z,54.20
2019-04-25T04:38:05.646Z,59.18
2019-04-25T04:40:37.637Z,58.20
2019-04-25T04:43:09.627Z,52.27
2019-04-25T04:45:43.281Z,58.50
2019-04-25T04:48:15.563Z,62.37
2019-04-25T04:50:47.436Z,65.67
2019-04-25T04:53:19.593Z,68.05
2019-04-25T04:55:51.261Z,63.25
2019-04-25T04:58:24.972Z,63.98
2019-04-25T05:00:56.728Z,64.00
2019-04-25T05:03:39.130Z,57.70
2019-04-25T05:06:28.211Z,56.65
2019-04-25T05:09:01.586Z,64.10
2019-04-25T05:11:34.873Z,66.57
2019-04-25T05:14:06.759Z,60.50
2019-04-25T05:16:38.694Z,56.45
2019-04-25T05:19:11.533Z,55.03
2019-04-25T05:21:45.604Z,56.80
2019-04-25T05:24:17.574Z,63.35
2019-04-25T05:26:49.552Z,57.75
2019-04-25T05:29:23.396Z,60.92
2019-04-25T05:31:54.900Z,59.10
2019-04-25T05:34:26.786Z,53.30
2019-04-25T05:36:58.925Z,55.95
2019-04-25T05:39:30.773Z,54.73
2019-04-25T05:42:04.613Z,56.95
2019-04-25T05:44:37.684Z,62.43
2019-04-25T05:47:09.620Z,53.60
2019-04-25T05:49:41.652Z,49.70
2019-04-25T05:52:14.004Z,38.63
2019-04-25T05:54:45.749Z,38.45
2019-04-25T05:57:18.094Z,37.35
2019-04-25T05:59:49.775Z,34.03
2019-04-25T06:02:21.646Z,35.98
2019-04-25T06:04:53.615Z,34.48
2019-04-25T06:07:26.672Z,42.62
2019-04-25T06:10:17.178Z,39.60
2019-04-25T06:13:07.603Z,34.38
2019-04-25T06:15:39.558Z,32.85
2019-04-25T06:18:14.055Z,38.85
2019-04-25T06:20:45.744Z,36.30
2019-04-25T06:23:19.236Z,42.00
2019-04-25T06:25:51.410Z,44.13
2019-04-25T06:28:25.014Z,42.00
2019-04-25T06:30:57.907Z,41.60
2019-04-25T06:33:30.099Z,41.37
2019-04-25T06:36:04.037Z,44.35
2019-04-25T06:38:35.543Z,36.60
2019-04-25T06:41:07.613Z,36.77
2019-04-25T06:43:40.883Z,41.30
2019-04-25T06:46:31.753Z,38.23
2019-04-25T06:49:14.412Z,37.08
2019-04-25T06:51:50.992Z,46.73
2019-04-25T06:54:25.379Z,43.50
2019-04-25T06:56:56.259Z,45.48
2019-04-25T06:59:30.275Z,41.50
2019-04-25T07:02:01.698Z,41.40
2019-04-25T07:04:34.645Z,49.13
2019-04-25T07:07:12.445Z,47.60
2019-04-25T07:09:40.303Z,44.00
2019-04-25T07:12:13.457Z,55.43
2019-04-25T07:14:45.221Z,50.70
2019-04-25T07:17:17.016Z,55.38
2019-04-25T07:19:49.047Z,64.15
2019-04-25T07:22:21.212Z,60.52
2019-04-25T07:24:53.758Z,56.83
2019-04-25T07:27:44.788Z,54.50
2019-04-25T07:30:31.878Z,57.58
2019-04-25T07:32:57.939Z,59.35
2019-04-25T07:35:30.002Z,57.10
2019-04-25T07:38:01.670Z,57.03
2019-04-25T07:40:35.220Z,57.43
2019-04-25T07:43:07.734Z,50.23
2019-04-25T07:45:40.034Z,56.28
2019-04-25T07:48:11.681Z,51.85
2019-04-25T07:50:43.911Z,57.65
2019-04-25T07:53:16.745Z,63.23
2019-04-25T07:55:48.911Z,56.13
2019-04-25T07:58:20.446Z,58.13
2019-04-25T08:00:53.945Z,52.98
2019-04-25T08:03:25.618Z,54.30
2019-04-25T08:05:57.382Z,58.45
2019-04-25T08:08:29.760Z,57.93
2019-04-25T08:11:05.209Z,54.63
2019-04-25T08:13:55.496Z,50.00
2019-04-25T08:16:30.154Z,51.25
2019-04-25T08:19:03.996Z,41.05
2019-04-25T08:21:36.595Z,44.63
2019-04-25T08:24:08.581Z,41.90
2019-04-25T08:26:40.341Z,48.65
2019-04-25T08:29:13.301Z,51.25
2019-04-25T08:31:45.354Z,52.45
2019-04-25T08:34:17.037Z,47.25
2019-04-25T08:36:49.120Z,49.15
2019-04-25T08:39:20.887Z,40.40
2019-04-25T08:41:53.914Z,40.98
2019-04-25T08:44:26.140Z,44.42
2019-04-25T08:46:58.008Z,39.65
2019-04-25T08:49:34.886Z,43.15
2019-04-25T08:52:07.052Z,35.60
2019-04-25T08:54:44.339Z,38.02
2019-04-25T08:57:15.479Z,35.05
2019-04-25T08:59:52.486Z,33.13
2019-04-25T09:02:24.137Z,34.10
2019-04-25T09:05:15.956Z,37.83
2019-04-25T09:07:47.819Z,33.60
2019-04-25T09:10:19.687Z,34.25
2019-04-25T09:12:51.335Z,34.92
2019-04-25T09:15:24.174Z,35.23
2019-04-25T09:17:56.094Z,36.23
2019-04-25T09:20:27.951Z,34.85
2019-04-25T09:22:59.915Z,36.25
2019-04-25T09:25:33.507Z,35.95
2019-04-25T09:28:05.482Z,39.18
2019-04-25T09:30:38.273Z,42.40
2019-04-25T09:33:10.005Z,34.90
2019-04-25T09:35:41.688Z,37.00
2019-04-25T09:38:13.538Z,37.85
2019-04-25T09:40:46.339Z,34.38
2019-04-25T09:43:18.488Z,33.98
2019-04-25T09:46:07.338Z,35.75
2019-04-25T09:48:41.166Z,31.87
2019-04-25T09:51:14.649Z,32.45
2019-04-25T09:53:51.043Z,36.93
2019-04-25T09:56:24.630Z,33.48
2019-04-25T09:59:00.896Z,31.45
2019-04-25T10:01:33.870Z,31.45
2019-04-25T10:04:05.847Z,31.63
2019-04-25T10:06:37.505Z,28.95
2019-04-25T10:09:10.627Z,24.07
2019-04-25T10:11:43.958Z,28.60
2019-04-25T10:14:24.647Z,35.98
2019-04-25T10:16:56.320Z,33.08
2019-04-25T10:19:28.238Z,28.15
2019-04-25T10:22:00.643Z,31.40
2019-04-25T10:24:32.317Z,28.92
2019-04-25T10:27:04.592Z,35.63
2019-04-25T10:29:44.890Z,38.65
2019-04-25T10:32:13.271Z,35.08
2019-04-25T10:34:46.193Z,35.73
2019-04-25T10:37:17.977Z,33.53
2019-04-25T10:39:50.152Z,29.42
2019-04-25T10:42:21.885Z,35.33
2019-04-25T10:44:54.463Z,32.83
2019-04-25T10:47:27.168Z,32.73
2019-04-25T10:49:59.372Z,32.05
2019-04-25T10:52:31.400Z,31.70
2019-04-25T10:55:04.172Z,34.38
2019-04-25T10:57:36.044Z,31.17
2019-04-25T11:00:13.730Z,30.45
2019-04-25T11:02:46.583Z,34.08
2019-04-25T11:05:19.600Z,28.60
2019-04-25T11:07:55.586Z,32.00
2019-04-25T11:10:26.538Z,31.25
2019-04-25T11:12:58.177Z,30.82
2019-04-25T11:15:30.379Z,42.83
2019-04-25T11:18:02.101Z,30.88
2019-04-25T11:20:34.305Z,39.35
2019-04-25T11:23:05.922Z,36.93
2019-04-25T11:25:37.880Z,36.10
2019-04-25T11:28:11.475Z,31.87
2019-04-25T11:30:46.666Z,29.65
2019-04-25T11:33:18.824Z,28.15
2019-04-25T11:35:50.652Z,35.40
2019-04-25T11:38:27.036Z,36.15
2019-04-25T11:41:03.952Z,29.05
2019-04-25T11:43:35.779Z,32.25
2019-04-25T11:46:07.744Z,33.80
2019-04-25T11:48:39.899Z,30.90
2019-04-25T11:51:13.822Z,28.62
2019-04-25T11:56:17.746Z,33.05
2019-04-25T11:58:50.652Z,29.70
2019-04-25T12:01:24.179Z,33.45
2019-04-25T12:03:57.438Z,39.83
2019-04-25T12:06:29.501Z,31.60
2019-04-25T12:09:01.461Z,28.07
2019-04-25T12:11:35.296Z,27.65
2019-04-25T12:14:07.132Z,29.75
2019-04-25T12:16:39.770Z,30.88
2019-04-25T12:19:11.759Z,28.53
2019-04-25T12:21:44.695Z,33.28
2019-04-25T12:24:17.744Z,28.90
2019-04-25T12:26:49.291Z,28.87
2019-04-25T12:29:21.478Z,40.23
2019-04-25T12:31:54.834Z,31.30
2019-04-25T12:34:26.746Z,28.57
2019-04-25T12:36:58.509Z,27.27
2019-04-25T12:39:30.770Z,26.75
2019-04-25T12:42:04.164Z,25.75
2019-04-25T12:44:54.821Z,26.17
2019-04-25T12:47:28.372Z,26.07
2019-04-25T12:50:00.038Z,27.62
2019-04-25T12:52:33.306Z,27.02
2019-04-25T12:55:06.787Z,26.95
2019-04-25T12:57:38.494Z,28.55
2019-04-25T13:00:10.879Z,27.95
2019-04-25T13:02:44.580Z,27.40
2019-04-25T13:05:16.228Z,27.62
2019-04-25T13:07:47.870Z,27.32
2019-04-25T13:10:19.953Z,25.02
2019-04-25T13:12:55.232Z,25.40
2019-04-25T13:15:27.061Z,25.70
2019-04-25T13:17:59.224Z,29.02
2019-04-25T13:20:31.192Z,27.77
2019-04-25T13:23:04.492Z,26.37
2019-04-25T13:25:36.553Z,27.22
2019-04-25T13:28:26.112Z,24.82
2019-04-25T13:31:04.000Z,26.80
2019-04-25T13:33:37.537Z,26.77
2019-04-25T13:36:16.764Z,26.93
2019-04-25T13:38:48.712Z,26.57
2019-04-25T13:41:20.471Z,25.35
2019-04-25T13:43:54.669Z,30.00
2019-04-25T13:46:27.593Z,25.15
2019-04-25T13:48:59.660Z,25.95
2019-04-25T13:51:33.215Z,29.13
2019-04-25T13:54:05.317Z,28.90
2019-04-25T13:56:40.440Z,26.07
2019-04-25T13:59:10.798Z,26.75
2019-04-25T14:01:44.090Z,27.42
2019-04-25T14:06:47.508Z,26.17
2019-04-25T14:09:21.367Z,27.17
2019-04-25T14:14:26.849Z,24.57
2019-04-25T14:17:17.586Z,28.87
2019-04-25T14:19:58.154Z,25.68
2019-04-25T14:22:30.393Z,34.63
2019-04-25T14:25:03.999Z,28.52
2019-04-25T14:30:08.472Z,32.10
2019-04-25T14:35:11.466Z,34.23
2019-04-25T14:37:44.025Z,28.85
2019-04-25T14:40:16.010Z,35.75
2019-04-25T14:42:47.888Z,27.00
2019-04-25T14:45:21.527Z,30.60
2019-04-25T14:47:53.987Z,29.40
2019-04-25T14:50:26.034Z,31.30
2019-04-25T14:52:58.087Z,30.10
2019-04-25T14:55:37.530Z,30.52
2019-04-25T14:58:14.221Z,37.45
2019-04-25T15:00:48.038Z,31.95
2019-04-25T15:03:19.674Z,38.45
2019-04-25T15:05:51.787Z,35.58
2019-04-25T15:08:24.011Z,37.85
2019-04-25T15:10:56.609Z,35.80
2019-04-25T15:13:28.292Z,37.25
2019-04-25T15:16:00.207Z,41.42
2019-04-25T15:18:40.577Z,39.30
2019-04-25T15:21:07.129Z,39.20
2019-04-25T15:23:38.940Z,42.03
2019-04-25T15:26:10.939Z,41.70
2019-04-25T15:28:44.505Z,37.40
2019-04-25T15:31:16.299Z,37.83
2019-04-25T15:33:48.468Z,39.13
2019-04-25T15:36:40.316Z,41.73
2019-04-25T15:39:31.038Z,43.58
2019-04-25T15:42:06.387Z,45.78
2019-04-25T15:44:57.664Z,45.50
2019-04-25T15:47:31.870Z,40.55
2019-04-25T15:50:04.352Z,39.35
2019-04-25T15:52:36.478Z,41.53
2019-04-25T15:55:08.585Z,51.40
2019-04-25T15:57:40.822Z,41.10
2019-04-25T16:00:17.668Z,41.23
2019-04-25T16:02:49.908Z,44.83
2019-04-25T16:05:21.583Z,44.77
2019-04-25T16:07:53.670Z,49.90
2019-04-25T16:10:25.737Z,43.28
2019-04-25T16:12:57.683Z,43.10
2019-04-25T16:15:29.236Z,47.53
2019-04-25T16:18:01.929Z,55.00
2019-04-25T16:20:35.738Z,65.08
2019-04-25T16:23:08.507Z,62.30
2019-04-25T16:25:41.223Z,59.77
2019-04-25T16:28:13.270Z,52.20
2019-04-25T16:30:44.942Z,49.77
2019-04-25T16:33:16.902Z,59.53
2019-04-25T16:35:48.756Z,55.55
2019-04-25T16:38:20.807Z,51.50
2019-04-25T16:40:52.672Z,71.53
2019-04-25T16:43:25.734Z,98.52
2019-04-25T16:45:57.836Z,103.00
2019-04-25T16:48:29.973Z,101.80
2019-04-25T16:51:01.878Z,71.65
2019-04-25T16:53:33.736Z,60.33
2019-04-25T16:56:05.700Z,61.25
2019-04-25T16:58:38.601Z,63.35
2019-04-25T17:01:12.031Z,65.62
2019-04-25T17:03:44.638Z,101.38
2019-04-25T17:06:16.632Z,126.18
2019-04-25T17:08:48.582Z,98.80
2019-04-25T17:11:21.175Z,70.92
2019-04-25T17:13:54.768Z,53.65
2019-04-25T17:16:34.796Z,50.15
2019-04-25T17:19:08.139Z,41.55
2019-04-25T17:21:39.999Z,32.17
2019-04-25T17:24:11.651Z,36.75
2019-04-25T17:26:43.820Z,34.58
2019-04-25T17:29:17.525Z,44.90
2019-04-25T17:32:00.327Z,46.35
2019-04-25T17:34:43.175Z,50.83
2019-04-25T17:37:16.442Z,47.58
2019-04-25T17:40:02.243Z,49.77
2019-04-25T17:42:35.527Z,60.90
2019-04-25T17:45:09.856Z,59.15
2019-04-25T17:47:52.331Z,67.12
2019-04-25T17:50:15.837Z,65.85
2019-04-25T17:52:47.491Z,55.70
2019-04-25T17:55:19.560Z,49.27
2019-04-25T17:57:51.427Z,53.25
2019-04-25T18:00:25.356Z,50.48
2019-04-25T18:02:58.943Z,45.65
2019-04-25T18:05:30.982Z,40.50
2019-04-25T18:08:03.050Z,46.10
2019-04-25T18:10:35.600Z,43.85
2019-04-25T18:13:09.389Z,44.38
2019-04-25T18:15:45.941Z,42.85
2019-04-25T18:18:19.417Z,48.45
2019-04-25T18:20:51.163Z,51.05
2019-04-25T18:23:24.677Z,46.63
2019-04-25T18:26:13.521Z,49.50
2019-04-25T18:28:49.919Z,43.38
2019-04-25T18:31:24.269Z,48.45
2019-04-25T18:33:58.689Z,44.48
2019-04-25T18:36:41.440Z,45.17
2019-04-25T18:39:21.309Z,41.73
2019-04-25T18:41:54.932Z,41.25
2019-04-25T18:44:27.081Z,39.95
2019-04-25T18:46:59.068Z,44.38
2019-04-25T18:49:31.122Z,52.15
2019-04-25T18:52:04.540Z,55.33
2019-04-25T18:54:38.855Z,47.95
2019-04-25T18:57:12.231Z,48.00
2019-04-25T19:00:01.110Z,47.83
2019-04-25T19:02:39.506Z,44.93
2019-04-25T19:05:22.766Z,50.17
2019-04-25T19:07:54.623Z,41.58
2019-04-25T19:10:26.584Z,42.65
2019-04-25T19:13:11.800Z,43.10
2019-04-25T19:15:31.826Z,54.00
2019-04-25T19:18:03.704Z,52.65
2019-04-25T19:20:35.672Z,53.30
2019-04-25T19:23:07.511Z,59.55
2019-04-25T19:25:40.251Z,52.60
2019-04-25T19:28:12.072Z,53.48
2019-04-25T19:30:45.067Z,53.23
2019-04-25T19:33:17.283Z,54.55
2019-04-25T19:35:48.991Z,53.63
2019-04-25T19:38:21.153Z,51.10
2019-04-25T19:40:54.543Z,49.63
2019-04-25T19:43:41.008Z,53.48
2019-04-25T19:46:12.801Z,55.30
2019-04-25T19:48:44.898Z,47.35
2019-04-25T19:51:16.636Z,43.50
2019-04-25T19:53:49.182Z,57.58
2019-04-25T19:56:20.967Z,50.92
2019-04-25T19:58:52.836Z,53.08
2019-04-25T20:01:25.629Z,59.65
2019-04-25T20:04:08.249Z,60.43
2019-04-25T20:06:42.256Z,60.60
2019-04-25T20:09:34.808Z,64.58
2019-04-25T20:12:06.985Z,84.28
2019-04-25T20:14:38.933Z,75.08
2019-04-25T20:17:11.109Z,74.72
2019-04-25T20:19:43.444Z,67.30
2019-04-25T20:22:16.985Z,63.65
2019-04-25T20:24:48.944Z,63.05
2019-04-25T20:27:20.602Z,66.75
2019-04-25T20:29:52.673Z,67.40
2019-04-25T20:32:24.836Z,68.25
2019-04-25T20:34:56.805Z,71.12
2019-04-25T20:37:28.448Z,76.37
2019-04-25T20:40:00.001Z,71.15
2019-04-25T20:42:31.988Z,65.62
2019-04-25T20:45:06.611Z,70.45
2019-04-25T20:47:38.480Z,77.50
2019-04-25T20:50:11.752Z,65.97
2019-04-25T20:52:43.514Z,68.43
2019-04-25T20:55:15.686Z,78.25
2019-04-25T20:57:48.410Z,82.10
2019-04-25T21:00:40.037Z,77.75
2019-04-25T21:03:12.376Z,76.42
2019-04-25T21:05:44.973Z,86.30
2019-04-25T21:08:17.651Z,81.87
2019-04-25T21:10:50.587Z,83.40
2019-04-25T21:13:24.248Z,83.27
2019-04-25T21:16:00.797Z,82.70
2019-04-25T21:18:37.370Z,82.25
2019-04-25T21:21:09.135Z,80.77
2019-04-25T21:23:41.325Z,77.60
2019-04-25T21:26:13.071Z,83.22
2019-04-25T21:28:45.040Z,67.70
2019-04-25T21:31:52.956Z,74.60
2019-04-25T21:34:30.918Z,72.47
2019-04-25T21:37:02.404Z,73.83
2019-04-25T21:39:37.140Z,75.00
2019-04-25T21:42:12.177Z,65.57
2019-04-25T21:44:44.181Z,69.07
2019-04-25T21:47:16.105Z,63.17
2019-04-25T21:49:47.966Z,64.20
2019-04-25T21:52:19.911Z,63.28
2019-04-25T21:54:51.781Z,66.17
2019-04-25T21:57:24.785Z,73.17
2019-04-25T22:00:03.138Z,91.75
2019-04-25T22:02:30.746Z,96.00
2019-04-25T22:05:02.844Z,106.63
2019-04-25T22:07:35.511Z,108.12
2019-04-25T22:10:09.612Z,110.28
2019-04-25T22:12:41.279Z,109.00
2019-04-25T22:15:13.555Z,104.58
2019-04-25T22:17:45.701Z,95.97
2019-04-25T22:20:17.582Z,92.25
2019-04-25T22:22:49.654Z,93.75
2019-04-25T22:25:21.717Z,99.67
2019-04-25T22:27:54.087Z,97.25
2019-04-25T22:30:25.849Z,97.22
2019-04-25T22:33:16.148Z,93.97
2019-04-25T22:35:49.375Z,92.65
2019-04-25T22:38:21.460Z,94.25
2019-04-25T22:40:53.602Z,95.32
2019-04-25T22:43:25.778Z,94.92
2019-04-25T22:45:58.231Z,94.70
2019-04-25T22:48:48.852Z,87.72
2019-04-25T22:51:20.690Z,90.62
2019-04-25T22:53:52.858Z,85.03
2019-04-25T22:56:24.570Z,86.65
2019-04-25T22:58:56.681Z,88.27
2019-04-25T23:01:32.873Z,83.62
2019-04-25T23:04:06.455Z,75.78
2019-04-25T23:06:40.266Z,75.83
2019-04-25T23:09:12.385Z,78.42
2019-04-25T23:11:45.400Z,76.55
2019-04-25T23:14:17.405Z,75.05
2019-04-25T23:16:49.656Z,77.30
2019-04-25T23:19:21.295Z,80.25
2019-04-25T23:21:53.365Z,70.37
2019-04-25T23:24:27.678Z,79.87
2019-04-25T23:27:14.336Z,82.17
2019-04-25T23:29:46.244Z,86.25
2019-04-25T23:32:18.327Z,80.67
2019-04-25T23:34:50.296Z,81.30
2019-04-25T23:37:22.055Z,75.05
2019-04-25T23:39:54.226Z,75.83
2019-04-25T23:42:25.988Z,75.78
2019-04-25T23:44:58.077Z,75.62
2019-04-25T23:47:29.748Z,75.40
2019-04-25T23:50:02.169Z,70.08
2019-04-25T23:52:34.363Z,69.07
2019-04-25T23:55:06.764Z,75.55
2019-04-25T23:57:39.723Z,69.80
